sensor_id;sensor_type;location;lat;lon;timestamp;pressure;altitude;pressure_sealevel;temperature;humidity
6851;BME280;3464;42.728;23.296;2023-04-09T00:00:09;95462.13;;;11.01;86.87
6851;BME280;3464;42.728;23.296;2023-04-09T00:02:35;95467.30;;;11.13;87.29
6851;BME280;3464;42.728;23.296;2023-04-09T00:05:02;95461.13;;;11.25;87.57
6851;BME280;3464;42.728;23.296;2023-04-09T00:07:29;95461.49;;;11.22;85.54
6851;BME280;3464;42.728;23.296;2023-04-09T00:09:56;95466.91;;;11.15;86.96
6851;BME280;3464;42.728;23.296;2023-04-09T00:12:23;95465.60;;;11.11;87.41
6851;BME280;3464;42.728;23.296;2023-04-09T00:14:50;95467.95;;;11.38;86.82
6851;BME280;3464;42.728;23.296;2023-04-09T00:17:19;95460.25;;;11.68;84.67
6851;BME280;3464;42.728;23.296;2023-04-09T00:19:46;95461.68;;;11.95;84.44
6851;BME280;3464;42.728;23.296;2023-04-09T00:22:14;95480.30;;;11.58;85.09
6851;BME280;3464;42.728;23.296;2023-04-09T00:24:48;95471.78;;;11.45;85.97
6851;BME280;3464;42.728;23.296;2023-04-09T00:27:14;95470.50;;;11.41;86.35
6851;BME280;3464;42.728;23.296;2023-04-09T00:29:41;95470.50;;;11.41;86.74
6851;BME280;3464;42.728;23.296;2023-04-09T00:32:08;95470.75;;;11.69;85.73
6851;BME280;3464;42.728;23.296;2023-04-09T00:34:36;95469.73;;;12.01;84.04
6851;BME280;3464;42.728;23.296;2023-04-09T00:37:03;95471.45;;;12.10;83.87
6851;BME280;3464;42.728;23.296;2023-04-09T00:39:29;95476.90;;;12.07;82.35
6851;BME280;3464;42.728;23.296;2023-04-09T00:41:59;95479.01;;;11.52;85.03
6851;BME280;3464;42.728;23.296;2023-04-09T00:44:29;95478.97;;;11.48;84.71
6851;BME280;3464;42.728;23.296;2023-04-09T00:46:57;95477.46;;;11.20;87.16
6851;BME280;3464;42.728;23.296;2023-04-09T00:49:24;95472.88;;;11.73;85.66
6851;BME280;3464;42.728;23.296;2023-04-09T00:51:54;95468.58;;;11.14;86.35
6851;BME280;3464;42.728;23.296;2023-04-09T00:54:20;95471.69;;;11.32;87.02
6851;BME280;3464;42.728;23.296;2023-04-09T00:56:48;95462.41;;;11.75;86.02
6851;BME280;3464;42.728;23.296;2023-04-09T00:59:17;95467.25;;;11.09;86.96
6851;BME280;3464;42.728;23.296;2023-04-09T01:01:46;95470.42;;;11.32;87.48
6851;BME280;3464;42.728;23.296;2023-04-09T01:04:13;95464.19;;;11.39;86.19
6851;BME280;3464;42.728;23.296;2023-04-09T01:06:42;95463.81;;;11.46;86.21
6851;BME280;3464;42.728;23.296;2023-04-09T01:09:20;95466.33;;;11.97;84.70
6851;BME280;3464;42.728;23.296;2023-04-09T01:12:07;95472.13;;;11.87;83.98
6851;BME280;3464;42.728;23.296;2023-04-09T01:14:37;95470.84;;;11.81;82.75
6851;BME280;3464;42.728;23.296;2023-04-09T01:17:11;95460.66;;;12.33;81.77
6851;BME280;3464;42.728;23.296;2023-04-09T01:19:43;95463.67;;;12.53;80.36
6851;BME280;3464;42.728;23.296;2023-04-09T01:22:14;95470.28;;;12.25;80.30
6851;BME280;3464;42.728;23.296;2023-04-09T01:24:58;95469.97;;;12.47;80.19
6851;BME280;3464;42.728;23.296;2023-04-09T01:27:21;95469.23;;;12.72;79.09
6851;BME280;3464;42.728;23.296;2023-04-09T01:29:49;95464.22;;;12.83;78.04
6851;BME280;3464;42.728;23.296;2023-04-09T01:32:17;95467.67;;;13.05;76.50
6851;BME280;3464;42.728;23.296;2023-04-09T01:34:45;95472.52;;;12.52;76.82
6851;BME280;3464;42.728;23.296;2023-04-09T01:37:12;95476.04;;;12.93;76.66
6851;BME280;3464;42.728;23.296;2023-04-09T01:39:40;95475.25;;;13.02;76.27
6851;BME280;3464;42.728;23.296;2023-04-09T01:42:07;95470.55;;;12.97;76.47
6851;BME280;3464;42.728;23.296;2023-04-09T01:44:33;95474.75;;;12.89;76.87
6851;BME280;3464;42.728;23.296;2023-04-09T01:47:01;95474.00;;;13.13;76.73
6851;BME280;3464;42.728;23.296;2023-04-09T01:49:29;95477.83;;;13.31;75.43
6851;BME280;3464;42.728;23.296;2023-04-09T01:51:56;95471.95;;;13.57;74.13
6851;BME280;3464;42.728;23.296;2023-04-09T01:54:24;95472.80;;;13.59;73.63
6851;BME280;3464;42.728;23.296;2023-04-09T01:56:53;95474.90;;;13.60;73.55
6851;BME280;3464;42.728;23.296;2023-04-09T01:59:19;95477.02;;;13.63;73.83
6851;BME280;3464;42.728;23.296;2023-04-09T02:02:00;95465.18;;;13.87;73.04
6851;BME280;3464;42.728;23.296;2023-04-09T02:04:32;95461.38;;;13.89;72.39
6851;BME280;3464;42.728;23.296;2023-04-09T02:07:17;95459.73;;;13.85;72.76
6851;BME280;3464;42.728;23.296;2023-04-09T02:09:43;95453.81;;;13.80;72.47
6851;BME280;3464;42.728;23.296;2023-04-09T02:12:11;95466.05;;;13.85;72.37
6851;BME280;3464;42.728;23.296;2023-04-09T02:14:37;95466.46;;;13.80;72.43
6851;BME280;3464;42.728;23.296;2023-04-09T02:17:04;95463.48;;;13.96;72.20
6851;BME280;3464;42.728;23.296;2023-04-09T02:19:43;95463.93;;;13.42;73.37
6851;BME280;3464;42.728;23.296;2023-04-09T02:22:11;95468.69;;;12.47;75.18
6851;BME280;3464;42.728;23.296;2023-04-09T02:24:38;95468.39;;;12.77;74.43
6851;BME280;3464;42.728;23.296;2023-04-09T02:27:05;95463.50;;;13.37;72.93
6851;BME280;3464;42.728;23.296;2023-04-09T02:29:31;95465.19;;;13.38;72.58
6851;BME280;3464;42.728;23.296;2023-04-09T02:31:58;95464.37;;;13.51;72.04
6851;BME280;3464;42.728;23.296;2023-04-09T02:34:25;95468.59;;;13.61;71.66
6851;BME280;3464;42.728;23.296;2023-04-09T02:36:52;95471.09;;;13.27;73.02
6851;BME280;3464;42.728;23.296;2023-04-09T02:39:33;95471.91;;;13.12;73.71
6851;BME280;3464;42.728;23.296;2023-04-09T02:42:09;95469.80;;;13.17;73.74
6851;BME280;3464;42.728;23.296;2023-04-09T02:44:38;95468.55;;;13.29;71.98
6851;BME280;3464;42.728;23.296;2023-04-09T02:47:05;95469.81;;;13.18;71.67
6851;BME280;3464;42.728;23.296;2023-04-09T02:49:31;95470.64;;;13.21;71.45
6851;BME280;3464;42.728;23.296;2023-04-09T02:51:58;95466.02;;;13.37;70.71
6851;BME280;3464;42.728;23.296;2023-04-09T02:54:25;95465.86;;;12.72;72.17
6851;BME280;3464;42.728;23.296;2023-04-09T02:56:51;95455.59;;;12.30;73.64
6851;BME280;3464;42.728;23.296;2023-04-09T02:59:18;95455.36;;;11.92;76.46
6851;BME280;3464;42.728;23.296;2023-04-09T03:01:45;95466.72;;;11.95;75.93
6851;BME280;3464;42.728;23.296;2023-04-09T03:04:11;95461.75;;;12.04;76.23
6851;BME280;3464;42.728;23.296;2023-04-09T03:06:38;95457.09;;;11.96;77.33
6851;BME280;3464;42.728;23.296;2023-04-09T03:09:04;95464.94;;;11.77;77.23
6851;BME280;3464;42.728;23.296;2023-04-09T03:11:31;95462.95;;;11.97;76.39
6851;BME280;3464;42.728;23.296;2023-04-09T03:13:58;95462.61;;;12.09;76.84
6851;BME280;3464;42.728;23.296;2023-04-09T03:16:25;95458.54;;;12.30;75.21
6851;BME280;3464;42.728;23.296;2023-04-09T03:18:52;95454.91;;;11.87;76.69
6851;BME280;3464;42.728;23.296;2023-04-09T03:21:19;95457.80;;;11.79;76.58
6851;BME280;3464;42.728;23.296;2023-04-09T03:23:46;95458.46;;;12.19;75.27
6851;BME280;3464;42.728;23.296;2023-04-09T03:26:14;95455.41;;;11.99;76.69
6851;BME280;3464;42.728;23.296;2023-04-09T03:28:41;95458.11;;;12.30;74.87
6851;BME280;3464;42.728;23.296;2023-04-09T03:31:08;95455.42;;;12.01;76.46
6851;BME280;3464;42.728;23.296;2023-04-09T03:33:36;95459.25;;;12.09;76.93
6851;BME280;3464;42.728;23.296;2023-04-09T03:36:02;95452.98;;;12.16;75.89
6851;BME280;3464;42.728;23.296;2023-04-09T03:38:32;95457.05;;;11.92;76.70
6851;BME280;3464;42.728;23.296;2023-04-09T03:40:59;95461.84;;;12.21;75.72
6851;BME280;3464;42.728;23.296;2023-04-09T03:43:26;95465.28;;;11.23;79.34
6851;BME280;3464;42.728;23.296;2023-04-09T03:45:53;95469.48;;;11.21;81.04
6851;BME280;3464;42.728;23.296;2023-04-09T03:48:19;95465.71;;;10.80;82.56
6851;BME280;3464;42.728;23.296;2023-04-09T03:50:47;95461.31;;;11.03;82.23
6851;BME280;3464;42.728;23.296;2023-04-09T03:53:13;95467.44;;;11.74;79.50
6851;BME280;3464;42.728;23.296;2023-04-09T03:55:40;95467.59;;;11.97;77.94
6851;BME280;3464;42.728;23.296;2023-04-09T03:58:08;95468.48;;;12.08;76.76
6851;BME280;3464;42.728;23.296;2023-04-09T04:00:36;95471.91;;;12.15;76.38
6851;BME280;3464;42.728;23.296;2023-04-09T04:03:03;95484.31;;;11.37;78.90
6851;BME280;3464;42.728;23.296;2023-04-09T04:05:31;95480.85;;;11.68;78.56
6851;BME280;3464;42.728;23.296;2023-04-09T04:07:58;95483.27;;;11.61;78.64
6851;BME280;3464;42.728;23.296;2023-04-09T04:10:25;95481.36;;;11.82;78.39
6851;BME280;3464;42.728;23.296;2023-04-09T04:12:53;95479.47;;;12.17;76.98
6851;BME280;3464;42.728;23.296;2023-04-09T04:15:19;95478.31;;;12.31;76.59
6851;BME280;3464;42.728;23.296;2023-04-09T04:17:46;95477.77;;;12.12;76.13
6851;BME280;3464;42.728;23.296;2023-04-09T04:20:12;95482.47;;;12.25;75.75
6851;BME280;3464;42.728;23.296;2023-04-09T04:22:39;95480.92;;;11.82;77.40
6851;BME280;3464;42.728;23.296;2023-04-09T04:25:06;95485.14;;;11.34;79.14
6851;BME280;3464;42.728;23.296;2023-04-09T04:27:32;95485.25;;;11.02;81.52
6851;BME280;3464;42.728;23.296;2023-04-09T04:29:59;95488.46;;;11.29;79.96
6851;BME280;3464;42.728;23.296;2023-04-09T04:32:25;95487.52;;;10.80;82.01
6851;BME280;3464;42.728;23.296;2023-04-09T04:34:52;95485.81;;;10.77;82.78
6851;BME280;3464;42.728;23.296;2023-04-09T04:37:19;95487.11;;;10.83;83.09
6851;BME280;3464;42.728;23.296;2023-04-09T04:39:45;95486.17;;;11.12;82.87
6851;BME280;3464;42.728;23.296;2023-04-09T04:42:12;95484.62;;;10.84;83.17
6851;BME280;3464;42.728;23.296;2023-04-09T04:44:38;95485.17;;;10.95;82.43
6851;BME280;3464;42.728;23.296;2023-04-09T04:47:05;95491.11;;;11.45;81.23
6851;BME280;3464;42.728;23.296;2023-04-09T04:49:32;95490.24;;;11.90;80.24
6851;BME280;3464;42.728;23.296;2023-04-09T04:51:59;95485.64;;;11.94;78.38
6851;BME280;3464;42.728;23.296;2023-04-09T04:54:27;95487.14;;;11.69;78.71
6851;BME280;3464;42.728;23.296;2023-04-09T04:56:54;95496.25;;;11.55;78.29
6851;BME280;3464;42.728;23.296;2023-04-09T04:59:21;95494.72;;;11.68;79.66
6851;BME280;3464;42.728;23.296;2023-04-09T05:01:49;95492.66;;;11.75;80.00
6851;BME280;3464;42.728;23.296;2023-04-09T05:04:19;95493.11;;;11.77;78.67
6851;BME280;3464;42.728;23.296;2023-04-09T05:06:46;95487.50;;;12.22;77.39
6851;BME280;3464;42.728;23.296;2023-04-09T05:09:12;95489.59;;;12.19;77.42
6851;BME280;3464;42.728;23.296;2023-04-09T05:11:40;95495.34;;;11.97;78.49
6851;BME280;3464;42.728;23.296;2023-04-09T05:14:07;95490.97;;;12.37;77.76
6851;BME280;3464;42.728;23.296;2023-04-09T05:16:35;95494.77;;;12.45;77.48
6851;BME280;3464;42.728;23.296;2023-04-09T05:19:04;95497.06;;;12.83;75.71
6851;BME280;3464;42.728;23.296;2023-04-09T05:21:35;95493.39;;;13.11;74.53
6851;BME280;3464;42.728;23.296;2023-04-09T05:24:04;95496.78;;;13.26;73.55
6851;BME280;3464;42.728;23.296;2023-04-09T05:26:31;95498.07;;;13.55;72.82
6851;BME280;3464;42.728;23.296;2023-04-09T05:29:02;95492.17;;;14.00;70.83
6851;BME280;3464;42.728;23.296;2023-04-09T05:31:29;95491.78;;;13.68;72.09
6851;BME280;3464;42.728;23.296;2023-04-09T05:33:56;95494.25;;;13.18;72.67
6851;BME280;3464;42.728;23.296;2023-04-09T05:36:23;95504.73;;;13.04;71.58
6851;BME280;3464;42.728;23.296;2023-04-09T05:38:51;95490.50;;;13.59;71.79
6851;BME280;3464;42.728;23.296;2023-04-09T05:41:18;95493.84;;;13.22;71.88
6851;BME280;3464;42.728;23.296;2023-04-09T05:43:46;95491.31;;;14.14;69.46
6851;BME280;3464;42.728;23.296;2023-04-09T05:46:12;95491.27;;;14.51;66.94
6851;BME280;3464;42.728;23.296;2023-04-09T05:48:39;95497.64;;;14.13;66.39
6851;BME280;3464;42.728;23.296;2023-04-09T05:51:06;95500.21;;;13.87;67.37
6851;BME280;3464;42.728;23.296;2023-04-09T05:53:34;95503.11;;;14.15;67.39
6851;BME280;3464;42.728;23.296;2023-04-09T05:56:11;95500.20;;;13.85;68.53
6851;BME280;3464;42.728;23.296;2023-04-09T05:58:30;95496.77;;;13.14;69.80
6851;BME280;3464;42.728;23.296;2023-04-09T06:00:57;95498.06;;;13.34;71.04
6851;BME280;3464;42.728;23.296;2023-04-09T06:03:24;95493.42;;;14.30;68.00
6851;BME280;3464;42.728;23.296;2023-04-09T06:05:51;95483.53;;;14.82;65.84
6851;BME280;3464;42.728;23.296;2023-04-09T06:08:18;95493.16;;;15.72;63.41
6851;BME280;3464;42.728;23.296;2023-04-09T06:10:44;95486.97;;;15.53;62.11
6851;BME280;3464;42.728;23.296;2023-04-09T06:13:12;95480.98;;;14.85;63.41
6851;BME280;3464;42.728;23.296;2023-04-09T06:15:39;95494.64;;;15.46;63.61
6851;BME280;3464;42.728;23.296;2023-04-09T06:18:06;95491.30;;;15.39;60.96
6851;BME280;3464;42.728;23.296;2023-04-09T06:20:35;95491.52;;;14.97;61.10
6851;BME280;3464;42.728;23.296;2023-04-09T06:23:02;95509.89;;;14.29;62.70
6851;BME280;3464;42.728;23.296;2023-04-09T06:25:29;95500.95;;;14.58;62.83
6851;BME280;3464;42.728;23.296;2023-04-09T06:27:56;95488.13;;;14.97;61.45
6851;BME280;3464;42.728;23.296;2023-04-09T06:30:24;95500.77;;;16.22;58.41
6851;BME280;3464;42.728;23.296;2023-04-09T06:32:50;95490.44;;;16.42;57.78
6851;BME280;3464;42.728;23.296;2023-04-09T06:35:18;95492.43;;;16.91;57.20
6851;BME280;3464;42.728;23.296;2023-04-09T06:37:45;95496.64;;;16.14;57.00
6851;BME280;3464;42.728;23.296;2023-04-09T06:40:14;95500.42;;;15.67;58.81
6851;BME280;3464;42.728;23.296;2023-04-09T06:42:49;95501.39;;;16.02;59.07
6851;BME280;3464;42.728;23.296;2023-04-09T06:45:20;95512.95;;;15.20;60.48
6851;BME280;3464;42.728;23.296;2023-04-09T06:47:47;95506.52;;;15.37;60.02
6851;BME280;3464;42.728;23.296;2023-04-09T06:50:13;95500.38;;;16.65;56.83
6851;BME280;3464;42.728;23.296;2023-04-09T06:52:43;95511.34;;;15.03;59.25
6851;BME280;3464;42.728;23.296;2023-04-09T06:55:14;95502.64;;;16.52;57.68
6851;BME280;3464;42.728;23.296;2023-04-09T06:57:41;95507.51;;;15.80;57.67
6851;BME280;3464;42.728;23.296;2023-04-09T07:00:10;95525.13;;;15.39;57.62
6851;BME280;3464;42.728;23.296;2023-04-09T07:02:37;95515.52;;;15.09;57.98
6851;BME280;3464;42.728;23.296;2023-04-09T07:05:04;95518.23;;;15.56;57.56
6851;BME280;3464;42.728;23.296;2023-04-09T07:07:31;95503.72;;;17.05;55.03
6851;BME280;3464;42.728;23.296;2023-04-09T07:09:57;95515.97;;;16.70;54.37
6851;BME280;3464;42.728;23.296;2023-04-09T07:12:30;95507.98;;;15.72;56.74
6851;BME280;3464;42.728;23.296;2023-04-09T07:14:59;95501.28;;;16.13;56.70
6851;BME280;3464;42.728;23.296;2023-04-09T07:17:27;95509.23;;;17.05;54.25
6851;BME280;3464;42.728;23.296;2023-04-09T07:19:54;95507.38;;;17.78;53.48
6851;BME280;3464;42.728;23.296;2023-04-09T07:22:21;95508.59;;;17.20;52.24
6851;BME280;3464;42.728;23.296;2023-04-09T07:24:48;95521.31;;;15.97;55.49
6851;BME280;3464;42.728;23.296;2023-04-09T07:27:14;95523.70;;;14.72;59.12
6851;BME280;3464;42.728;23.296;2023-04-09T07:29:42;95515.28;;;16.11;57.03
6851;BME280;3464;42.728;23.296;2023-04-09T07:32:08;95522.98;;;15.34;57.67
6851;BME280;3464;42.728;23.296;2023-04-09T07:34:35;95521.65;;;14.57;58.65
6851;BME280;3464;42.728;23.296;2023-04-09T07:37:03;95525.47;;;14.22;60.51
6851;BME280;3464;42.728;23.296;2023-04-09T07:39:31;95511.84;;;14.83;59.86
6851;BME280;3464;42.728;23.296;2023-04-09T07:42:02;95517.09;;;15.35;58.80
6851;BME280;3464;42.728;23.296;2023-04-09T07:44:34;95511.95;;;16.03;56.34
6851;BME280;3464;42.728;23.296;2023-04-09T07:47:02;95517.67;;;15.79;55.72
6851;BME280;3464;42.728;23.296;2023-04-09T07:49:29;95518.50;;;15.80;54.46
6851;BME280;3464;42.728;23.296;2023-04-09T07:51:57;95530.66;;;15.26;54.68
6851;BME280;3464;42.728;23.296;2023-04-09T07:54:25;95527.59;;;15.51;55.25
6851;BME280;3464;42.728;23.296;2023-04-09T07:56:52;95519.36;;;15.78;54.30
6851;BME280;3464;42.728;23.296;2023-04-09T07:59:19;95526.23;;;14.75;55.19
6851;BME280;3464;42.728;23.296;2023-04-09T08:01:48;95535.06;;;14.84;54.58
6851;BME280;3464;42.728;23.296;2023-04-09T08:04:15;95533.56;;;15.42;54.32
6851;BME280;3464;42.728;23.296;2023-04-09T08:06:42;95536.40;;;15.61;53.35
6851;BME280;3464;42.728;23.296;2023-04-09T08:09:11;95520.66;;;14.99;54.31
6851;BME280;3464;42.728;23.296;2023-04-09T08:11:39;95538.92;;;14.63;55.89
6851;BME280;3464;42.728;23.296;2023-04-09T08:14:10;95529.19;;;15.65;53.51
6851;BME280;3464;42.728;23.296;2023-04-09T08:16:37;95536.15;;;15.27;54.13
6851;BME280;3464;42.728;23.296;2023-04-09T08:19:10;95545.63;;;14.83;55.14
6851;BME280;3464;42.728;23.296;2023-04-09T08:21:43;95542.77;;;14.57;55.84
6851;BME280;3464;42.728;23.296;2023-04-09T08:24:11;95534.84;;;15.39;55.64
6851;BME280;3464;42.728;23.296;2023-04-09T08:26:37;95544.92;;;15.51;54.49
6851;BME280;3464;42.728;23.296;2023-04-09T08:29:05;95521.32;;;16.48;52.26
6851;BME280;3464;42.728;23.296;2023-04-09T08:31:31;95520.98;;;16.78;51.89
6851;BME280;3464;42.728;23.296;2023-04-09T08:33:58;95526.84;;;17.20;51.21
6851;BME280;3464;42.728;23.296;2023-04-09T08:36:24;95536.41;;;17.34;51.16
6851;BME280;3464;42.728;23.296;2023-04-09T08:38:52;95540.00;;;17.53;51.06
6851;BME280;3464;42.728;23.296;2023-04-09T08:41:22;95530.38;;;18.52;48.61
6851;BME280;3464;42.728;23.296;2023-04-09T08:43:52;95534.64;;;17.38;50.61
6851;BME280;3464;42.728;23.296;2023-04-09T08:46:19;95535.80;;;16.80;50.84
6851;BME280;3464;42.728;23.296;2023-04-09T08:48:47;95529.10;;;16.29;52.42
6851;BME280;3464;42.728;23.296;2023-04-09T08:51:16;95549.81;;;14.96;53.98
6851;BME280;3464;42.728;23.296;2023-04-09T08:53:46;95535.11;;;14.69;54.72
6851;BME280;3464;42.728;23.296;2023-04-09T08:56:15;95535.95;;;14.73;55.32
6851;BME280;3464;42.728;23.296;2023-04-09T08:58:42;95540.62;;;14.64;56.19
6851;BME280;3464;42.728;23.296;2023-04-09T09:01:19;95520.41;;;15.47;55.17
6851;BME280;3464;42.728;23.296;2023-04-09T09:04:02;95513.83;;;16.30;53.41
6851;BME280;3464;42.728;23.296;2023-04-09T09:06:28;95510.06;;;17.07;51.48
6851;BME280;3464;42.728;23.296;2023-04-09T09:09:01;95510.41;;;17.74;50.59
6851;BME280;3464;42.728;23.296;2023-04-09T09:11:27;95505.86;;;17.36;49.75
6851;BME280;3464;42.728;23.296;2023-04-09T09:13:57;95510.70;;;17.83;50.58
6851;BME280;3464;42.728;23.296;2023-04-09T09:16:23;95511.80;;;17.34;49.99
6851;BME280;3464;42.728;23.296;2023-04-09T09:18:51;95502.33;;;17.75;50.17
6851;BME280;3464;42.728;23.296;2023-04-09T09:21:17;95510.42;;;17.44;50.04
6851;BME280;3464;42.728;23.296;2023-04-09T09:23:44;95501.43;;;15.99;52.38
6851;BME280;3464;42.728;23.296;2023-04-09T09:26:12;95498.09;;;16.80;52.15
6851;BME280;3464;42.728;23.296;2023-04-09T09:28:41;95496.83;;;18.25;49.86
6851;BME280;3464;42.728;23.296;2023-04-09T09:31:08;95498.19;;;16.71;51.58
6851;BME280;3464;42.728;23.296;2023-04-09T09:33:34;95495.82;;;17.83;49.68
6851;BME280;3464;42.728;23.296;2023-04-09T09:36:02;95501.88;;;17.76;48.95
6851;BME280;3464;42.728;23.296;2023-04-09T09:38:29;95500.27;;;16.76;51.13
6851;BME280;3464;42.728;23.296;2023-04-09T09:40:55;95489.08;;;17.53;50.81
6851;BME280;3464;42.728;23.296;2023-04-09T09:43:22;95486.78;;;18.43;48.63
6851;BME280;3464;42.728;23.296;2023-04-09T09:45:49;95490.19;;;17.91;49.10
6851;BME280;3464;42.728;23.296;2023-04-09T09:48:15;95486.49;;;17.84;49.66
6851;BME280;3464;42.728;23.296;2023-04-09T09:50:42;95471.91;;;18.42;48.22
6851;BME280;3464;42.728;23.296;2023-04-09T09:53:10;95469.47;;;18.12;49.46
6851;BME280;3464;42.728;23.296;2023-04-09T09:55:38;95458.85;;;18.36;49.37
6851;BME280;3464;42.728;23.296;2023-04-09T09:58:11;95475.64;;;17.12;50.45
6851;BME280;3464;42.728;23.296;2023-04-09T10:00:37;95468.55;;;17.65;50.49
6851;BME280;3464;42.728;23.296;2023-04-09T10:03:11;95462.78;;;19.16;49.00
6851;BME280;3464;42.728;23.296;2023-04-09T10:05:35;95482.00;;;17.98;49.67
6851;BME280;3464;42.728;23.296;2023-04-09T10:08:02;95470.62;;;17.06;49.30
6851;BME280;3464;42.728;23.296;2023-04-09T10:10:31;95454.03;;;18.43;48.56
6851;BME280;3464;42.728;23.296;2023-04-09T10:12:59;95460.97;;;17.60;48.77
6851;BME280;3464;42.728;23.296;2023-04-09T10:15:31;95459.45;;;18.02;48.71
6851;BME280;3464;42.728;23.296;2023-04-09T10:17:58;95464.58;;;17.15;50.46
6851;BME280;3464;42.728;23.296;2023-04-09T10:20:28;95458.11;;;18.29;49.68
6851;BME280;3464;42.728;23.296;2023-04-09T10:22:55;95456.42;;;17.79;49.39
6851;BME280;3464;42.728;23.296;2023-04-09T10:25:21;95444.56;;;18.71;47.96
6851;BME280;3464;42.728;23.296;2023-04-09T10:30:33;95447.73;;;19.23;45.98
6851;BME280;3464;42.728;23.296;2023-04-09T10:33:10;95440.53;;;19.95;44.56
6851;BME280;3464;42.728;23.296;2023-04-09T10:35:38;95441.45;;;21.19;42.89
6851;BME280;3464;42.728;23.296;2023-04-09T10:38:09;95444.13;;;20.04;43.51
6851;BME280;3464;42.728;23.296;2023-04-09T10:40:51;95448.29;;;19.17;44.90
6851;BME280;3464;42.728;23.296;2023-04-09T10:43:18;95434.99;;;19.42;45.13
6851;BME280;3464;42.728;23.296;2023-04-09T10:52:18;95445.29;;;18.57;45.41
6851;BME280;3464;42.728;23.296;2023-04-09T10:54:48;95420.95;;;18.83;44.40
6851;BME280;3464;42.728;23.296;2023-04-09T10:57:16;95422.31;;;18.79;45.68
6851;BME280;3464;42.728;23.296;2023-04-09T10:59:45;95430.98;;;17.78;47.53
6851;BME280;3464;42.728;23.296;2023-04-09T11:02:26;95413.18;;;18.69;46.17
6851;BME280;3464;42.728;23.296;2023-04-09T11:07:32;95403.39;;;18.89;44.49
6851;BME280;3464;42.728;23.296;2023-04-09T11:10:00;95403.27;;;19.14;45.00
6851;BME280;3464;42.728;23.296;2023-04-09T11:12:27;95406.06;;;18.83;44.94
6851;BME280;3464;42.728;23.296;2023-04-09T11:18:27;95395.27;;;18.52;45.07
6851;BME280;3464;42.728;23.296;2023-04-09T11:23:40;95409.30;;;18.05;45.16
6851;BME280;3464;42.728;23.296;2023-04-09T11:26:08;95396.22;;;18.01;45.22
6851;BME280;3464;42.728;23.296;2023-04-09T11:28:37;95404.42;;;18.40;44.27
6851;BME280;3464;42.728;23.296;2023-04-09T11:31:05;95397.84;;;18.26;44.84
6851;BME280;3464;42.728;23.296;2023-04-09T11:33:35;95390.81;;;19.40;43.85
6851;BME280;3464;42.728;23.296;2023-04-09T11:36:04;95394.77;;;19.85;42.08
6851;BME280;3464;42.728;23.296;2023-04-09T11:38:30;95393.38;;;19.18;41.21
6851;BME280;3464;42.728;23.296;2023-04-09T11:40:57;95394.37;;;19.14;42.01
6851;BME280;3464;42.728;23.296;2023-04-09T11:43:24;95373.50;;;18.76;41.52
6851;BME280;3464;42.728;23.296;2023-04-09T11:45:52;95382.55;;;18.49;43.01
6851;BME280;3464;42.728;23.296;2023-04-09T11:48:18;95387.20;;;18.28;43.64
6851;BME280;3464;42.728;23.296;2023-04-09T11:50:46;95386.53;;;18.63;43.24
6851;BME280;3464;42.728;23.296;2023-04-09T11:53:15;95389.39;;;18.88;42.91
6851;BME280;3464;42.728;23.296;2023-04-09T11:55:41;95384.03;;;18.40;43.10
6851;BME280;3464;42.728;23.296;2023-04-09T11:58:09;95372.86;;;18.66;43.76
6851;BME280;3464;42.728;23.296;2023-04-09T12:00:34;95379.75;;;18.83;43.60
6851;BME280;3464;42.728;23.296;2023-04-09T12:03:03;95365.27;;;19.03;43.12
6851;BME280;3464;42.728;23.296;2023-04-09T12:05:30;95365.78;;;19.54;42.00
6851;BME280;3464;42.728;23.296;2023-04-09T12:07:58;95360.19;;;20.37;40.77
6851;BME280;3464;42.728;23.296;2023-04-09T12:10:27;95356.40;;;19.88;40.94
6851;BME280;3464;42.728;23.296;2023-04-09T12:12:53;95358.70;;;20.44;40.01
6851;BME280;3464;42.728;23.296;2023-04-09T12:15:22;95359.52;;;20.15;39.04
6851;BME280;3464;42.728;23.296;2023-04-09T12:17:56;95360.39;;;20.89;38.49
6851;BME280;3464;42.728;23.296;2023-04-09T12:23:29;95354.81;;;19.83;37.77
6851;BME280;3464;42.728;23.296;2023-04-09T12:25:56;95360.38;;;19.82;37.57
6851;BME280;3464;42.728;23.296;2023-04-09T12:28:25;95351.24;;;19.40;37.89
6851;BME280;3464;42.728;23.296;2023-04-09T12:30:51;95354.75;;;19.16;38.28
6851;BME280;3464;42.728;23.296;2023-04-09T12:33:21;95355.69;;;19.65;42.61
6851;BME280;3464;42.728;23.296;2023-04-09T12:35:48;95354.08;;;19.79;43.28
6851;BME280;3464;42.728;23.296;2023-04-09T12:38:14;95353.97;;;20.76;41.70
6851;BME280;3464;42.728;23.296;2023-04-09T12:40:41;95347.67;;;20.12;42.69
6851;BME280;3464;42.728;23.296;2023-04-09T12:43:08;95354.69;;;20.36;43.46
6851;BME280;3464;42.728;23.296;2023-04-09T12:45:36;95346.07;;;21.25;41.55
6851;BME280;3464;42.728;23.296;2023-04-09T12:48:02;95343.44;;;21.01;41.36
6851;BME280;3464;42.728;23.296;2023-04-09T12:50:29;95337.72;;;21.46;40.82
6851;BME280;3464;42.728;23.296;2023-04-09T12:52:56;95332.17;;;21.46;40.83
6851;BME280;3464;42.728;23.296;2023-04-09T12:55:23;95337.40;;;21.42;39.55
6851;BME280;3464;42.728;23.296;2023-04-09T12:57:49;95337.02;;;20.58;38.18
6851;BME280;3464;42.728;23.296;2023-04-09T13:00:17;95341.35;;;20.99;37.48
6851;BME280;3464;42.728;23.296;2023-04-09T13:02:43;95338.20;;;20.46;38.54
6851;BME280;3464;42.728;23.296;2023-04-09T13:05:10;95336.50;;;19.83;39.29
6851;BME280;3464;42.728;23.296;2023-04-09T13:07:36;95339.08;;;20.16;39.86
6851;BME280;3464;42.728;23.296;2023-04-09T13:10:04;95331.01;;;19.82;39.46
6851;BME280;3464;42.728;23.296;2023-04-09T13:12:30;95340.48;;;20.10;39.58
6851;BME280;3464;42.728;23.296;2023-04-09T13:14:57;95336.83;;;20.20;39.41
6851;BME280;3464;42.728;23.296;2023-04-09T13:17:24;95333.48;;;20.01;40.46
6851;BME280;3464;42.728;23.296;2023-04-09T13:19:52;95336.27;;;19.92;39.97
6851;BME280;3464;42.728;23.296;2023-04-09T13:22:21;95338.02;;;19.21;40.72
6851;BME280;3464;42.728;23.296;2023-04-09T13:24:48;95341.32;;;18.70;42.77
6851;BME280;3464;42.728;23.296;2023-04-09T13:27:17;95340.60;;;18.84;42.93
6851;BME280;3464;42.728;23.296;2023-04-09T13:29:46;95343.27;;;18.58;44.63
6851;BME280;3464;42.728;23.296;2023-04-09T13:32:13;95349.30;;;18.75;44.72
6851;BME280;3464;42.728;23.296;2023-04-09T13:34:42;95353.16;;;18.30;45.68